Atqasuk, Alaska
Current Conditions -  °F | °C
As of 3:53 PM on Monday 20 Oct 2014 (Local Time) from PAWI Reporting Station
Light Snow Light Snow  
Wind Chill:   Ceiling: 1500
Heat Index: 19°   Visibility: 0.5mi
Dew Point: 15°   Wind: 31mph
Humidity: 85%   Direction: 40°NE
Pressure: 29.82"   Gusts: 40mph
Location:  70.47°N, 157.4°W
Report Text: PAWI 202353Z AUTO 04027G35KT 1/2SM -SN FZFG OVC015 M07/M09 A2982 RMK AO2 PK WND 05037/2338 SLP099 P0000 60000 T10721094 11056 21072 51010 TSNO
Loading
Personal Weather Stations






























Interactive Weather Map New forecast layout! Learn more

10-Day Weather Forecast

Advertisements
Track Severe Weather on mobile